AVV weather

Avalon Airport
Melbourne, Victoria, Australia

Public forecast

Using degrees Celsius for public forecast. Weather courtesy of forecast.io.

METAR (pilot weather report)

Retrieved 2018/08/16 04:35 UTC (28 minutes ago):

YMAV 160435Z AUTO 26018G28KT 9999 DZ SCT036 SCT043 BKN055 11/07 Q1012

TAF (pilot weather forecast)

Forecast is more than 12 hours old.

Retrieved 2018/08/15 00:00 UTC (1 day ago):

TAF YMAV 152307Z 1600/1624 27016G28KT 9999 SCT040 FM160800 32008KT CAVOK FM162300 32015G25KT CAVOK